Time;durP1;ratioP1;P1;durP2;ratioP2;P2;SDS_P1;SDS_P2;PMS_P1;PMS_P2;Temp;Humidity;BMP_temperature;BMP_pressure;BME280_temperature;BME280_humidity;BME280_pressure;Samples;Min_cycle;Max_cycle;Signal;HPM_P1;HPM_P2
2023/04/27 00:02:06;;;;;;;;;;;5.40;99.90;;;;;;5080311;28;19924;-78
2023/04/27 00:04:32;;;;;;;;;;;5.50;99.90;;;;;;5088962;28;19973;-78
2023/04/27 00:06:57;;;;;;;;;;;5.40;99.90;;;;;;5051174;28;19969;-79
2023/04/27 00:09:23;;;;;;;;;;;5.30;99.90;;;;;;5073490;28;19920;-78
2023/04/27 00:11:49;;;;;;;;;;;5.20;99.90;;;;;;5074982;28;19985;-79
2023/04/27 00:14:14;;;;;;;;;;;5.10;99.90;;;;;;5074818;28;19920;-78
2023/04/27 00:16:40;;;;;;;;;;;5.10;99.90;;;;;;5091746;28;19928;-78
2023/04/27 00:19:07;;;;;;;;;;;5.00;99.90;;;;;;5090507;28;19931;-79
2023/04/27 00:21:33;;;;;;;;;;;5.00;99.90;;;;;;5091885;28;19920;-79
2023/04/27 00:23:59;;;;;;;;;;;4.90;99.90;;;;;;5077650;28;20297;-78
2023/04/27 00:26:25;;;;;;;;;;;4.90;99.90;;;;;;5050321;28;19921;-78
2023/04/27 00:28:51;;;;;;;;;;;4.80;99.90;;;;;;5083458;28;19924;-78
2023/04/27 00:31:16;;;;;;;;;;;5.00;99.90;;;;;;5053058;28;20338;-77
2023/04/27 00:33:42;;;;;;;;;;;4.80;99.90;;;;;;5054043;28;19932;-77
2023/04/27 00:36:08;;;;;;;;;;;4.80;99.90;;;;;;5088619;28;19976;-77
2023/04/27 00:38:33;;;;;;;;;;;4.70;99.90;;;;;;5091361;28;19924;-77
2023/04/27 00:40:59;;;;;;;;;;;4.70;99.90;;;;;;5090063;28;19924;-78
2023/04/27 00:43:25;;;;;;;;;;;4.70;99.90;;;;;;5096753;28;19950;-77
2023/04/27 00:45:51;;;;;;;;;;;4.70;99.90;;;;;;5105867;28;20661;-77
2023/04/27 00:48:16;;;;;;;;;;;4.60;99.90;;;;;;5086390;28;19924;-76
2023/04/27 00:50:42;;;;;;;;;;;4.70;99.90;;;;;;5080878;28;19958;-77
2023/04/27 00:53:07;;;;;;;;;;;4.70;99.90;;;;;;5087353;28;19927;-77
2023/04/27 00:55:33;;;;;;;;;;;5.20;99.90;;;;;;5043182;28;20054;-78
2023/04/27 00:57:59;;;;;;;;;;;4.70;99.90;;;;;;5074099;28;20046;-77
2023/04/27 01:00:24;;;;;;;;;;;4.80;99.90;;;;;;5090783;28;19928;-78
2023/04/27 01:02:52;;;;;;;;;;;4.70;99.90;;;;;;5080020;28;19930;-77
2023/04/27 01:05:18;;;;;;;;;;;4.80;99.90;;;;;;5078445;28;20290;-78
2023/04/27 01:07:43;;;;;;;;;;;4.80;99.90;;;;;;5073887;28;19920;-78
2023/04/27 01:10:09;;;;;;;;;;;4.70;99.90;;;;;;5090038;28;19920;-78
2023/04/27 01:12:35;;;;;;;;;;;4.80;99.90;;;;;;5083087;28;19932;-78
2023/04/27 01:15:00;;;;;;;;;;;4.80;99.90;;;;;;5073637;28;19921;-78
2023/04/27 01:17:26;;;;;;;;;;;4.90;99.90;;;;;;5074120;28;19925;-78
2023/04/27 01:19:54;;;;;;;;;;;4.80;99.90;;;;;;5085890;28;20019;-77
2023/04/27 01:22:20;;;;;;;;;;;4.70;99.90;;;;;;5091224;28;19924;-77
2023/04/27 01:24:45;;;;;;;;;;;4.60;99.90;;;;;;5089540;28;19920;-77
2023/04/27 01:27:12;;;;;;;;;;;4.60;99.90;;;;;;5083790;28;19966;-77
2023/04/27 01:29:37;;;;;;;;;;;4.60;99.90;;;;;;5084886;28;19924;-77
2023/04/27 01:32:03;;;;;;;;;;;4.60;99.90;;;;;;5089941;28;20636;-78
2023/04/27 01:34:29;;;;;;;;;;;4.60;99.90;;;;;;5077342;28;20392;-77
2023/04/27 01:36:55;;;;;;;;;;;4.80;99.90;;;;;;5073044;28;20289;-78
2023/04/27 01:39:20;;;;;;;;;;;4.70;99.90;;;;;;5084572;28;19920;-78
2023/04/27 01:41:46;;;;;;;;;;;4.70;99.90;;;;;;5082062;28;19924;-77
2023/04/27 01:44:11;;;;;;;;;;;4.70;99.90;;;;;;5067734;28;20391;-78
2023/04/27 01:46:37;;;;;;;;;;;4.80;99.90;;;;;;5091620;28;20245;-78
2023/04/27 01:49:03;;;;;;;;;;;4.80;99.90;;;;;;5071813;28;19920;-77
2023/04/27 01:51:28;;;;;;;;;;;4.70;99.90;;;;;;5090520;28;19985;-77
2023/04/27 01:53:54;;;;;;;;;;;4.60;99.90;;;;;;5088604;28;19965;-78
2023/04/27 01:56:20;;;;;;;;;;;4.60;99.90;;;;;;5091267;28;19973;-77
2023/04/27 01:58:46;;;;;;;;;;;4.60;99.90;;;;;;5089749;28;19920;-78
2023/04/27 02:01:11;;;;;;;;;;;4.60;99.90;;;;;;5079336;28;19926;-78
2023/04/27 02:03:37;;;;;;;;;;;4.60;99.90;;;;;;5069443;28;19934;-77
2023/04/27 02:06:02;;;;;;;;;;;4.60;99.90;;;;;;5085832;28;20388;-78
2023/04/27 02:08:28;;;;;;;;;;;4.50;99.90;;;;;;5067225;28;20289;-78
2023/04/27 02:10:54;;;;;;;;;;;4.50;99.90;;;;;;5048932;28;19921;-77
2023/04/27 02:13:20;;;;;;;;;;;4.40;99.90;;;;;;5059244;28;20019;-77
2023/04/27 02:15:45;;;;;;;;;;;4.50;99.90;;;;;;5069844;28;20015;-77
2023/04/27 02:18:11;;;;;;;;;;;4.40;99.90;;;;;;5069567;28;19924;-77
2023/04/27 02:20:37;;;;;;;;;;;4.30;99.90;;;;;;5070769;28;20008;-77
2023/04/27 02:23:02;;;;;;;;;;;4.30;99.90;;;;;;5065578;28;19944;-77
2023/04/27 02:25:28;;;;;;;;;;;4.20;99.90;;;;;;5069409;28;19969;-77
2023/04/27 02:27:53;;;;;;;;;;;4.20;99.90;;;;;;5057464;28;19929;-77
2023/04/27 02:30:20;;;;;;;;;;;4.20;99.90;;;;;;5066726;28;19936;-78
2023/04/27 02:32:46;;;;;;;;;;;4.10;99.90;;;;;;5065856;28;19924;-77
2023/04/27 02:35:11;;;;;;;;;;;4.00;99.90;;;;;;5049295;28;19932;-77
2023/04/27 02:37:39;;;;;;;;;;;4.00;99.90;;;;;;5072112;28;19928;-77
2023/04/27 02:40:08;;;;;;;;;;;4.00;99.90;;;;;;5069029;28;19920;-77
2023/04/27 02:42:34;;;;;;;;;;;4.00;99.90;;;;;;5049935;28;19932;-77
2023/04/27 02:45:00;;;;;;;;;;;4.00;99.90;;;;;;5071883;28;19927;-77
2023/04/27 02:47:25;;;;;;;;;;;4.00;99.90;;;;;;5050457;28;20289;-78
2023/04/27 02:49:52;;;;;;;;;;;4.00;99.90;;;;;;5048651;28;20015;-77
2023/04/27 02:52:17;;;;;;;;;;;4.10;99.90;;;;;;5059408;28;20014;-77
2023/04/27 02:54:43;;;;;;;;;;;4.20;99.90;;;;;;5063249;28;20417;-77
2023/04/27 02:57:08;;;;;;;;;;;4.30;99.90;;;;;;5054166;28;19924;-77
2023/04/27 02:59:34;;;;;;;;;;;4.30;99.90;;;;;;5050725;28;20069;-77
2023/04/27 03:02:00;;;;;;;;;;;4.30;99.90;;;;;;5048701;28;20366;-77
2023/04/27 03:04:26;;;;;;;;;;;4.20;99.90;;;;;;5063324;28;19931;-78
2023/04/27 03:06:52;;;;;;;;;;;4.20;99.90;;;;;;5049303;28;19924;-78
2023/04/27 03:09:17;;;;;;;;;;;4.10;99.90;;;;;;5057483;28;19931;-78
2023/04/27 03:11:43;;;;;;;;;;;4.20;99.90;;;;;;5069704;28;19927;-78
2023/04/27 03:14:08;;;;;;;;;;;4.00;99.90;;;;;;5068653;28;20439;-77
2023/04/27 03:16:34;;;;;;;;;;;4.00;99.90;;;;;;5069730;28;20018;-77
2023/04/27 03:19:00;;;;;;;;;;;3.90;99.90;;;;;;5071058;28;19966;-77
2023/04/27 03:21:26;;;;;;;;;;;3.90;99.90;;;;;;5056834;28;19927;-77
2023/04/27 03:23:51;;;;;;;;;;;4.00;99.90;;;;;;5084966;28;20415;-77
2023/04/27 03:26:17;;;;;;;;;;;3.90;99.90;;;;;;5073184;28;19983;-77
2023/04/27 03:28:43;;;;;;;;;;;4.20;99.90;;;;;;5075533;28;19936;-78
2023/04/27 03:31:10;;;;;;;;;;;4.00;99.90;;;;;;5092772;28;19977;-78
2023/04/27 03:33:36;;;;;;;;;;;4.10;99.90;;;;;;5090670;28;19920;-78
2023/04/27 03:36:03;;;;;;;;;;;4.00;99.90;;;;;;5092746;28;19927;-78
2023/04/27 03:38:29;;;;;;;;;;;4.00;99.90;;;;;;5093276;28;19920;-77
2023/04/27 03:40:55;;;;;;;;;;;4.10;99.90;;;;;;5091664;28;19982;-78
2023/04/27 03:43:21;;;;;;;;;;;4.10;99.90;;;;;;5092994;28;19920;-78
2023/04/27 03:45:46;;;;;;;;;;;4.20;99.90;;;;;;5093208;28;20321;-78
2023/04/27 03:48:12;;;;;;;;;;;4.30;99.90;;;;;;5092043;28;19920;-77
2023/04/27 03:50:38;;;;;;;;;;;4.20;99.90;;;;;;5092406;28;19920;-78
2023/04/27 03:53:03;;;;;;;;;;;4.20;99.90;;;;;;5072662;28;20057;-78
2023/04/27 03:55:30;;;;;;;;;;;4.30;99.90;;;;;;5067592;28;20003;-77
2023/04/27 03:57:55;;;;;;;;;;;4.20;99.90;;;;;;5064270;28;19921;-77
2023/04/27 04:00:21;;;;;;;;;;;4.10;99.90;;;;;;5052516;28;19943;-78
2023/04/27 04:02:47;;;;;;;;;;;3.90;99.90;;;;;;5064097;28;19982;-78
2023/04/27 04:05:14;;;;;;;;;;;3.70;99.90;;;;;;5071347;28;19928;-78
2023/04/27 04:07:42;;;;;;;;;;;3.50;99.90;;;;;;5088512;28;19925;-78
2023/04/27 04:10:08;;;;;;;;;;;3.30;99.90;;;;;;5068017;28;20483;-78
2023/04/27 04:12:34;;;;;;;;;;;3.30;99.90;;;;;;5088911;28;20015;-78
2023/04/27 04:14:59;;;;;;;;;;;3.30;99.90;;;;;;5071757;28;19944;-78
2023/04/27 04:17:25;;;;;;;;;;;3.30;99.90;;;;;;5071864;28;19950;-78
2023/04/27 04:19:50;;;;;;;;;;;3.30;99.90;;;;;;5072830;28;19971;-77
2023/04/27 04:22:16;;;;;;;;;;;3.30;99.90;;;;;;5071357;28;20456;-78
2023/04/27 04:24:42;;;;;;;;;;;3.40;99.90;;;;;;5054695;28;19927;-78
2023/04/27 04:27:08;;;;;;;;;;;3.40;99.90;;;;;;5071478;28;20319;-78
2023/04/27 04:29:33;;;;;;;;;;;3.50;99.90;;;;;;5068608;28;20302;-77
2023/04/27 04:31:59;;;;;;;;;;;3.40;99.90;;;;;;5071161;28;19970;-77
2023/04/27 04:34:26;;;;;;;;;;;3.40;99.90;;;;;;5062912;28;19971;-77
2023/04/27 04:36:51;;;;;;;;;;;3.30;99.90;;;;;;5073020;28;19921;-78
2023/04/27 04:39:21;;;;;;;;;;;3.40;99.90;;;;;;5070547;28;19924;-77
2023/04/27 04:41:48;;;;;;;;;;;3.30;99.90;;;;;;5088468;28;20312;-78
2023/04/27 04:44:14;;;;;;;;;;;3.30;99.90;;;;;;5071183;28;19928;-78
2023/04/27 04:46:40;;;;;;;;;;;3.30;99.90;;;;;;5074695;28;20366;-78
2023/04/27 04:49:06;;;;;;;;;;;3.30;99.90;;;;;;5066637;28;19925;-77
2023/04/27 04:51:32;;;;;;;;;;;3.30;99.90;;;;;;5051767;28;19931;-77
2023/04/27 04:53:57;;;;;;;;;;;3.30;99.90;;;;;;5053427;28;19934;-77
2023/04/27 04:56:23;;;;;;;;;;;3.30;99.90;;;;;;5071285;28;19927;-77
2023/04/27 04:58:48;;;;;;;;;;;3.30;99.90;;;;;;5072268;28;19931;-77
2023/04/27 05:01:14;;;;;;;;;;;3.40;99.90;;;;;;5034941;28;19925;-77
2023/04/27 05:03:40;;;;;;;;;;;3.40;99.90;;;;;;5050339;28;19921;-77
2023/04/27 05:06:05;;;;;;;;;;;3.40;99.90;;;;;;5059060;28;19920;-77
2023/04/27 05:08:31;;;;;;;;;;;3.30;99.90;;;;;;5071376;28;20397;-78
2023/04/27 05:10:57;;;;;;;;;;;3.40;99.90;;;;;;5070091;28;19928;-77
2023/04/27 05:13:25;;;;;;;;;;;3.40;99.90;;;;;;5053835;28;19931;-78
2023/04/27 05:15:51;;;;;;;;;;;3.40;99.90;;;;;;5071242;28;19920;-77
2023/04/27 05:18:17;;;;;;;;;;;3.40;99.90;;;;;;5067488;28;19935;-78
2023/04/27 05:20:43;;;;;;;;;;;3.40;99.90;;;;;;5070585;28;19928;-77
2023/04/27 05:23:08;;;;;;;;;;;3.50;99.90;;;;;;5053666;28;20389;-77
2023/04/27 05:25:40;;;;;;;;;;;3.60;99.90;;;;;;5069958;28;19920;-78
2023/04/27 05:28:06;;;;;;;;;;;3.60;99.90;;;;;;5071475;28;19975;-77
2023/04/27 05:30:32;;;;;;;;;;;3.60;99.90;;;;;;5054272;28;19969;-77
2023/04/27 05:32:58;;;;;;;;;;;3.60;99.90;;;;;;5070100;28;19963;-77
2023/04/27 05:35:23;;;;;;;;;;;3.60;99.90;;;;;;5053238;28;19971;-77
2023/04/27 05:37:49;;;;;;;;;;;3.70;99.90;;;;;;5068157;28;19931;-77
2023/04/27 05:40:14;;;;;;;;;;;3.70;99.90;;;;;;5052994;28;20015;-77
2023/04/27 05:42:40;;;;;;;;;;;3.80;99.90;;;;;;5050662;28;19924;-77
2023/04/27 05:45:06;;;;;;;;;;;4.10;99.90;;;;;;5051312;28;19961;-78
2023/04/27 05:47:31;;;;;;;;;;;3.90;99.90;;;;;;5070128;28;20424;-77
2023/04/27 05:49:57;;;;;;;;;;;4.00;99.90;;;;;;5069457;28;19924;-77
2023/04/27 05:52:28;;;;;;;;;;;4.20;99.90;;;;;;5071120;28;19920;-77
2023/04/27 05:54:53;;;;;;;;;;;4.30;99.90;;;;;;5053341;28;19971;-76
2023/04/27 05:57:19;;;;;;;;;;;4.30;99.90;;;;;;5050893;28;20050;-77
2023/04/27 05:59:45;;;;;;;;;;;4.50;99.90;;;;;;5062173;28;20391;-77
2023/04/27 06:02:11;;;;;;;;;;;4.70;99.90;;;;;;5069629;28;19920;-77
2023/04/27 06:04:37;;;;;;;;;;;4.60;99.90;;;;;;5069530;28;19975;-77
2023/04/27 06:07:12;;;;;;;;;;;4.60;99.90;;;;;;5062281;28;19921;-77
2023/04/27 06:09:38;;;;;;;;;;;4.70;99.90;;;;;;5063163;28;19921;-77
2023/04/27 06:12:04;;;;;;;;;;;4.60;99.90;;;;;;5070130;28;19932;-77
2023/04/27 06:14:30;;;;;;;;;;;4.60;99.90;;;;;;5086682;28;19920;-77
2023/04/27 06:16:55;;;;;;;;;;;4.80;99.90;;;;;;5069782;28;19921;-77
2023/04/27 06:19:21;;;;;;;;;;;4.90;99.90;;;;;;5069001;28;19924;-77
2023/04/27 06:21:47;;;;;;;;;;;4.90;99.90;;;;;;5068191;28;19936;-77
2023/04/27 06:24:12;;;;;;;;;;;4.80;99.90;;;;;;5067304;28;19925;-77
2023/04/27 06:26:38;;;;;;;;;;;5.00;99.90;;;;;;5070111;28;19927;-78
2023/04/27 06:29:06;;;;;;;;;;;5.00;99.90;;;;;;5069592;28;19931;-77
2023/04/27 06:31:32;;;;;;;;;;;5.00;99.90;;;;;;5053803;28;20020;-77
2023/04/27 06:33:57;;;;;;;;;;;5.00;99.90;;;;;;5068447;28;19982;-78
2023/04/27 06:36:24;;;;;;;;;;;5.10;99.90;;;;;;5069640;28;19924;-78
2023/04/27 06:38:49;;;;;;;;;;;5.10;99.90;;;;;;5069398;28;19927;-78
2023/04/27 06:41:15;;;;;;;;;;;5.20;99.90;;;;;;5069108;28;19920;-77
2023/04/27 06:43:40;;;;;;;;;;;5.20;99.90;;;;;;5067839;28;20039;-77
2023/04/27 06:46:06;;;;;;;;;;;5.30;99.90;;;;;;5069816;28;20392;-77
2023/04/27 06:48:32;;;;;;;;;;;5.30;99.90;;;;;;5051610;28;19978;-75
2023/04/27 06:50:58;;;;;;;;;;;5.40;99.90;;;;;;5069873;28;20368;-76
2023/04/27 06:53:23;;;;;;;;;;;5.40;99.90;;;;;;5071534;28;19928;-75
2023/04/27 06:55:49;;;;;;;;;;;5.50;99.90;;;;;;5072722;28;19931;-76
2023/04/27 06:58:15;;;;;;;;;;;5.60;99.90;;;;;;5089903;28;20022;-76
2023/04/27 07:00:41;;;;;;;;;;;5.80;99.90;;;;;;5073819;28;20043;-76
2023/04/27 07:03:06;;;;;;;;;;;5.70;99.90;;;;;;5072626;28;19978;-77
2023/04/27 07:05:32;;;;;;;;;;;5.70;99.90;;;;;;5054381;28;20003;-73
2023/04/27 07:07:58;;;;;;;;;;;5.80;99.90;;;;;;5074676;28;19921;-76
2023/04/27 07:10:23;;;;;;;;;;;5.90;99.90;;;;;;5074241;28;20358;-76
2023/04/27 07:12:49;;;;;;;;;;;6.10;99.90;;;;;;5090477;28;19919;-76
2023/04/27 07:15:15;;;;;;;;;;;6.00;99.90;;;;;;5092820;28;19968;-76
2023/04/27 07:17:40;;;;;;;;;;;6.10;99.90;;;;;;5092451;28;19923;-76
2023/04/27 07:20:07;;;;;;;;;;;6.10;99.90;;;;;;5079511;28;19931;-74
2023/04/27 07:22:33;;;;;;;;;;;6.20;99.90;;;;;;5091505;28;20376;-77
2023/04/27 07:24:58;;;;;;;;;;;6.20;99.90;;;;;;5093493;28;19946;-72
2023/04/27 07:27:25;;;;;;;;;;;6.30;99.90;;;;;;5087189;28;19924;-79
2023/04/27 07:29:51;;;;;;;;;;;6.30;99.90;;;;;;5068672;28;19930;-76
2023/04/27 07:32:16;;;;;;;;;;;6.40;99.90;;;;;;5086117;28;20007;-76
2023/04/27 07:34:42;;;;;;;;;;;6.50;99.90;;;;;;5069889;28;19931;-76
2023/04/27 07:37:08;;;;;;;;;;;6.50;99.90;;;;;;5091925;28;19923;-76
2023/04/27 07:39:33;;;;;;;;;;;6.60;99.90;;;;;;5074779;28;20405;-76
2023/04/27 07:41:59;;;;;;;;;;;6.60;99.90;;;;;;5092693;28;19962;-76
2023/04/27 07:44:24;;;;;;;;;;;6.70;99.90;;;;;;5062531;28;19921;-76
2023/04/27 07:46:52;;;;;;;;;;;6.70;99.90;;;;;;5068281;28;20365;-75
2023/04/27 07:49:18;;;;;;;;;;;6.80;99.90;;;;;;5091597;28;19978;-76
2023/04/27 07:51:44;;;;;;;;;;;6.80;99.90;;;;;;5070993;28;19966;-76
2023/04/27 07:54:10;;;;;;;;;;;6.80;99.90;;;;;;5071423;28;19976;-75
2023/04/27 07:56:35;;;;;;;;;;;6.90;99.90;;;;;;5070445;28;19928;-76
2023/04/27 07:59:01;;;;;;;;;;;6.90;99.90;;;;;;5084720;28;19924;-75
2023/04/27 08:01:27;;;;;;;;;;;6.90;99.90;;;;;;5091953;28;19958;-75
2023/04/27 08:03:52;;;;;;;;;;;7.00;99.90;;;;;;5090162;28;20375;-75
2023/04/27 08:06:18;;;;;;;;;;;7.10;99.90;;;;;;5077603;28;19920;-77
2023/04/27 08:08:43;;;;;;;;;;;7.10;99.90;;;;;;5088192;28;19927;-76
2023/04/27 08:11:10;;;;;;;;;;;7.20;99.90;;;;;;5091980;28;19924;-75
2023/04/27 08:13:35;;;;;;;;;;;7.20;99.90;;;;;;5091846;28;20450;-75
2023/04/27 08:16:01;;;;;;;;;;;7.20;99.90;;;;;;5080541;28;19974;-76
2023/04/27 08:18:27;;;;;;;;;;;7.20;99.90;;;;;;5100744;28;20400;-76
2023/04/27 08:20:53;;;;;;;;;;;7.30;99.90;;;;;;5085215;28;19924;-76
2023/04/27 08:23:18;;;;;;;;;;;7.30;99.90;;;;;;5091618;28;19931;-77
2023/04/27 08:25:44;;;;;;;;;;;7.40;99.90;;;;;;5087606;28;19924;-76
2023/04/27 08:28:09;;;;;;;;;;;7.40;99.90;;;;;;5070949;28;20645;-76
2023/04/27 08:30:35;;;;;;;;;;;7.40;99.90;;;;;;5061381;28;19921;-76
2023/04/27 08:33:00;;;;;;;;;;;7.50;99.90;;;;;;5051388;28;19928;-76
2023/04/27 08:35:26;;;;;;;;;;;7.50;99.90;;;;;;5067378;28;20082;-76
2023/04/27 08:37:53;;;;;;;;;;;7.60;99.90;;;;;;5052871;28;19928;-75
2023/04/27 08:40:19;;;;;;;;;;;7.60;99.90;;;;;;5050309;28;19920;-76
2023/04/27 08:42:57;;;;;;;;;;;7.60;99.90;;;;;;5067463;28;19970;-76
2023/04/27 08:45:24;;;;;;;;;;;7.60;99.90;;;;;;5053920;28;20274;-78
2023/04/27 08:47:50;;;;;;;;;;;7.70;99.90;;;;;;5070970;28;19924;-77
2023/04/27 08:50:16;;;;;;;;;;;7.70;99.90;;;;;;5068955;28;19986;-77
2023/04/27 08:54:26;;;;;;;5.60;2.30;;;7.80;99.90;;;;;;5084892;27;20167;-78
2023/04/27 08:56:52;;;;;;;3.80;2.10;;;8.00;99.90;;;;;;5059907;28;20147;-77
2023/04/27 08:59:18;;;;;;;5.45;2.20;;;8.10;99.90;;;;;;5056415;28;20494;-78
2023/04/27 09:01:45;;;;;;;3.33;2.03;;;8.20;99.90;;;;;;5083393;28;20082;-78
2023/04/27 09:04:11;;;;;;;3.60;1.80;;;8.30;99.90;;;;;;5085912;28;20049;-79
2023/04/27 09:06:37;;;;;;;4.75;2.00;;;8.40;99.90;;;;;;5085918;28;20078;-78
2023/04/27 09:09:03;;;;;;;5.15;2.40;;;8.50;99.90;;;;;;5084495;28;20052;-77
2023/04/27 09:11:30;;;;;;;4.63;2.10;;;8.60;99.90;;;;;;5086155;28;20497;-77
2023/04/27 09:13:58;;;;;;;5.32;2.17;;;8.60;99.90;;;;;;5067837;28;20086;-77
2023/04/27 09:16:27;;;;;;;3.15;1.83;;;8.70;99.90;;;;;;5075286;28;20490;-80
2023/04/27 09:18:54;;;;;;;5.13;2.60;;;8.70;99.90;;;;;;5062651;28;20532;-76
2023/04/27 09:21:24;;;;;;;3.30;2.05;;;8.80;99.90;;;;;;5073185;28;20172;-78
2023/04/27 09:23:50;;;;;;;10.25;2.30;;;8.80;99.90;;;;;;5085316;28;20067;-77
2023/04/27 09:26:24;;;;;;;5.15;2.10;;;8.90;99.90;;;;;;5076430;28;20048;-76
2023/04/27 09:28:53;;;;;;;3.83;2.05;;;9.00;99.90;;;;;;5052689;28;20040;-77
2023/04/27 09:31:19;;;;;;;3.53;2.00;;;9.00;99.90;;;;;;5069425;28;20056;-78
2023/04/27 09:33:46;;;;;;;;;;;9.10;99.90;;;;;;5076414;28;20040;-78
2023/04/27 09:36:13;;;;;;;4.85;2.40;;;9.10;99.90;;;;;;5085688;28;20053;-78
2023/04/27 09:38:39;;;;;;;6.45;3.03;;;9.20;99.90;;;;;;5077719;28;20052;-78
2023/04/27 09:41:06;;;;;;;5.95;2.25;;;9.20;99.90;;;;;;5060974;28;20040;-79
2023/04/27 09:43:32;;;;;;;11.13;3.00;;;9.20;99.90;;;;;;5068785;28;20088;-78
2023/04/27 09:45:58;;;;;;;;;;;9.20;99.90;;;;;;5065791;28;20047;-78
2023/04/27 09:48:25;;;;;;;7.72;2.55;;;9.30;99.90;;;;;;5080644;28;19958;-78
2023/04/27 09:50:52;;;;;;;7.85;2.75;;;9.30;99.90;;;;;;5059883;28;20049;-78
2023/04/27 09:53:48;;;;;;;6.07;2.40;;;9.40;99.90;;;;;;5076475;28;20059;-78
2023/04/27 09:56:47;;;;;;;4.35;2.13;;;9.40;99.90;;;;;;5067064;28;20067;-78
2023/04/27 09:59:28;;;;;;;6.15;2.70;;;9.50;99.90;;;;;;5065284;28;20044;-78
2023/04/27 10:01:58;;;;;;;3.90;2.13;;;9.60;99.90;;;;;;5080878;28;20102;-78
2023/04/27 10:04:29;;;;;;;6.22;2.60;;;9.70;99.90;;;;;;5078520;28;20048;-80
2023/04/27 10:07:00;;;;;;;6.13;2.78;;;9.90;99.90;;;;;;5054592;28;20075;-79
2023/04/27 10:09:30;;;;;;;7.57;2.60;;;10.00;99.90;;;;;;5046846;28;20056;-77
2023/04/27 10:12:12;;;;;;;6.22;2.90;;;10.10;99.90;;;;;;5092835;28;20550;-77
2023/04/27 10:14:51;;;;;;;6.80;2.65;;;10.10;99.90;;;;;;5052653;28;20494;-77
2023/04/27 10:17:17;;;;;;;5.82;2.78;;;10.20;99.90;;;;;;5057405;28;20509;-78
2023/04/27 10:19:56;;;;;;;;;;;10.30;99.90;;;;;;5089849;28;20056;-79
2023/04/27 10:22:22;;;;;;;11.40;2.70;;;10.40;99.40;;;;;;5055589;28;19925;-78
2023/04/27 10:24:50;;;;;;;7.50;2.50;;;10.50;99.90;;;;;;5049741;28;20049;-78
2023/04/27 10:27:18;;;;;;;6.30;2.75;;;10.50;99.90;;;;;;5034188;28;20088;-77
2023/04/27 10:29:46;;;;;;;7.80;2.78;;;10.60;99.90;;;;;;5050132;28;20084;-74
2023/04/27 10:32:25;;;;;;;7.05;3.00;;;10.80;99.90;;;;;;5050107;28;20053;-78
2023/04/27 10:35:01;;;;;;;6.13;2.80;;;11.00;99.90;;;;;;5045514;28;20099;-76
2023/04/27 10:37:41;;;;;;;5.13;2.85;;;11.10;99.90;;;;;;5050908;28;20053;-74
2023/04/27 10:40:09;;;;;;;3.97;2.33;;;11.30;99.90;;;;;;5049530;28;20102;-75
2023/04/27 10:42:35;;;;;;;5.15;2.85;;;11.30;99.90;;;;;;5069706;28;20049;-75
2023/04/27 10:45:01;;;;;;;5.03;2.40;;;11.40;99.90;;;;;;5051384;28;20051;-75
2023/04/27 10:47:57;;;;;;;8.52;2.70;;;11.50;99.50;;;;;;5049616;28;20397;-74
2023/04/27 10:50:24;;;;;;;8.80;2.90;;;11.60;95.30;;;;;;5035367;28;20067;-76
2023/04/27 10:52:49;;;;;;;7.80;2.90;;;11.70;96.80;;;;;;5068228;28;20203;-74
2023/04/27 10:55:16;;;;;;;7.28;2.45;;;11.80;97.90;;;;;;5055640;28;20134;-74
2023/04/27 10:57:46;;;;;;;5.03;2.33;;;11.80;96.70;;;;;;5088340;28;20243;-74
2023/04/27 11:00:14;;;;;;;7.30;2.67;;;11.90;95.40;;;;;;5079728;28;20146;-75
2023/04/27 11:02:40;;;;;;;7.20;3.17;;;11.90;96.10;;;;;;5071654;28;20081;-74
2023/04/27 11:05:17;;;;;;;7.40;2.75;;;12.20;96.80;;;;;;5058724;28;20056;-75
2023/04/27 11:07:44;;;;;;;5.97;2.30;;;12.40;90.20;;;;;;5052711;28;20131;-76
2023/04/27 11:10:14;;;;;;;4.65;2.60;;;12.60;94.80;;;;;;5051722;28;20083;-75
2023/04/27 11:12:41;;;;;;;6.60;2.90;;;12.60;88.10;;;;;;5085734;28;20049;-75
2023/04/27 11:15:07;;;;;;;7.13;2.80;;;12.80;92.60;;;;;;5070873;28;20044;-75
2023/04/27 11:17:33;;;;;;;5.75;2.53;;;13.00;92.90;;;;;;5035285;28;20123;-79
2023/04/27 11:19:59;;;;;;;6.45;2.80;;;13.20;92.80;;;;;;5069903;28;20132;-75
2023/04/27 11:22:25;;;;;;;6.10;2.95;;;13.60;93.00;;;;;;5043053;28;20048;-76
2023/04/27 11:24:52;;;;;;;5.68;2.80;;;14.10;91.50;;;;;;5055825;28;20083;-77
2023/04/27 11:27:18;;;;;;;6.93;2.95;;;14.40;86.60;;;;;;5086355;28;20067;-76
2023/04/27 11:29:45;;;;;;;7.82;2.67;;;14.90;90.60;;;;;;5052971;28;20543;-76
2023/04/27 11:32:24;;;;;;;5.75;2.67;;;15.20;84.20;;;;;;5053357;28;20048;-77
2023/04/27 11:34:52;;;;;;;5.95;2.40;;;15.10;65.20;;;;;;5085614;28;20140;-77
2023/04/27 11:37:23;;;;;;;6.22;2.80;;;14.90;72.60;;;;;;5070522;28;20048;-79
2023/04/27 11:39:51;;;;;;;7.32;3.03;;;15.00;72.30;;;;;;5071627;28;20493;-77
2023/04/27 11:42:27;;;;;;;7.97;2.60;;;15.20;73.00;;;;;;5056749;28;20430;-76
2023/04/27 11:44:58;;;;;;;4.95;2.22;;;15.50;68.90;;;;;;5070836;28;20115;-74
2023/04/27 11:47:26;;;;;;;9.25;3.13;;;16.00;70.00;;;;;;5065188;28;20055;-76
2023/04/27 11:49:55;;;;;;;7.55;2.60;;;16.40;72.30;;;;;;5064320;28;20056;-76
2023/04/27 11:52:31;;;;;;;5.43;2.88;;;16.90;71.70;;;;;;5050721;28;20182;-76
2023/04/27 11:54:58;;;;;;;5.15;2.70;;;17.40;69.90;;;;;;5049346;28;20604;-77
2023/04/27 11:57:31;;;;;;;5.80;2.38;;;17.60;71.40;;;;;;5045665;28;20077;-77
2023/04/27 11:59:59;;;;;;;6.85;2.90;;;17.50;68.00;;;;;;5064658;28;20556;-76
2023/04/27 12:02:25;;;;;;;5.50;2.90;;;17.30;69.10;;;;;;5053066;28;20040;-76
2023/04/27 12:04:51;;;;;;;7.72;2.90;;;17.20;68.40;;;;;;5064158;28;20048;-76
2023/04/27 12:07:17;;;;;;;5.25;2.22;;;17.10;67.70;;;;;;5050395;28;20102;-76
2023/04/27 12:09:43;;;;;;;4.95;2.50;;;17.00;65.00;;;;;;5050786;28;20157;-76
2023/04/27 12:12:10;;;;;;;7.10;2.80;;;17.20;64.70;;;;;;5069908;28;20052;-76
2023/04/27 12:14:36;;;;;;;5.05;2.42;;;17.60;64.90;;;;;;5050481;28;20136;-76
2023/04/27 12:17:01;;;;;;;7.18;2.55;;;18.00;65.40;;;;;;5040809;28;20128;-76
2023/04/27 12:19:28;;;;;;;6.75;3.05;;;18.20;63.90;;;;;;5068911;28;20048;-76
2023/04/27 12:21:54;;;;;;;5.65;2.50;;;18.20;62.50;;;;;;5069369;28;20382;-76
2023/04/27 12:24:20;;;;;;;6.72;2.80;;;18.30;62.00;;;;;;5068388;28;20056;-77
2023/04/27 12:26:47;;;;;;;9.48;3.28;;;18.50;61.30;;;;;;5069129;28;20446;-76
2023/04/27 12:29:13;;;;;;;5.47;2.55;;;18.80;61.90;;;;;;5068613;28;20048;-76
2023/04/27 12:31:38;;;;;;;3.80;2.20;;;19.10;60.60;;;;;;5068345;28;20481;-77
2023/04/27 12:34:04;;;;;;;4.90;2.25;;;19.40;59.60;;;;;;5044364;28;20398;-76
2023/04/27 12:36:31;;;;;;;5.85;2.50;;;19.60;59.80;;;;;;5066326;28;20171;-76
2023/04/27 12:38:59;;;;;;;4.25;2.55;;;19.60;58.60;;;;;;5025468;28;20158;-77
2023/04/27 12:41:24;;;;;;;7.40;2.83;;;19.60;58.00;;;;;;5053293;28;20056;-77
2023/04/27 12:43:50;;;;;;;4.03;2.28;;;19.80;58.00;;;;;;5059099;28;20044;-77
2023/04/27 12:46:19;;;;;;;5.18;2.20;;;20.00;57.60;;;;;;5052814;28;20063;-78
2023/04/27 12:48:45;;;;;;;7.72;2.97;;;20.20;56.80;;;;;;5067936;28;20106;-81
2023/04/27 12:51:12;;;;;;;5.38;2.50;;;20.10;56.00;;;;;;5069639;28;20421;-76
2023/04/27 12:53:37;;;;;;;5.18;2.42;;;19.90;55.70;;;;;;5035332;28;20064;-76
2023/04/27 12:56:03;;;;;;;5.05;2.42;;;19.80;55.70;;;;;;5065558;28;20056;-77
2023/04/27 12:58:30;;;;;;;5.22;2.30;;;19.80;54.70;;;;;;5023979;28;20402;-76
2023/04/27 13:00:58;;;;;;;4.78;2.20;;;19.90;54.50;;;;;;5048772;28;20495;-76
2023/04/27 13:03:24;;;;;;;6.25;2.83;;;20.10;54.10;;;;;;5048055;28;20087;-77
2023/04/27 13:05:50;;;;;;;5.15;2.53;;;20.30;53.40;;;;;;5031301;28;20053;-77
2023/04/27 13:08:16;;;;;;;6.53;2.45;;;20.20;53.50;;;;;;5049566;28;20107;-76
2023/04/27 13:10:41;;;;;;;7.50;2.80;;;20.20;53.10;;;;;;5048482;28;20106;-77
2023/04/27 13:13:07;;;;;;;4.57;2.33;;;20.00;53.20;;;;;;5065867;28;20044;-76
2023/04/27 13:15:33;;;;;;;5.00;2.33;;;19.80;52.00;;;;;;5069421;28;20427;-76
2023/04/27 13:18:00;;;;;;;7.20;2.55;;;19.90;52.30;;;;;;5051521;28;20094;-76
2023/04/27 13:20:26;;;;;;;4.82;2.15;;;20.00;52.30;;;;;;5052414;28;20520;-76
2023/04/27 13:22:52;;;;;;;6.20;2.20;;;20.30;51.90;;;;;;5066718;28;20080;-76
2023/04/27 13:25:18;;;;;;;3.90;2.38;;;20.30;51.40;;;;;;5057482;28;20059;-76
2023/04/27 13:27:44;;;;;;;4.72;2.30;;;20.40;51.50;;;;;;5032811;28;20057;-76
2023/04/27 13:30:10;;;;;;;6.32;2.40;;;20.40;51.50;;;;;;5048490;28;20434;-76
2023/04/27 13:32:36;;;;;;;8.10;2.40;;;20.30;51.00;;;;;;5058413;28;20045;-76
2023/04/27 13:35:02;;;;;;;5.20;2.10;;;20.50;50.30;;;;;;5051422;28;20060;-76
2023/04/27 13:37:28;;;;;;;6.93;2.42;;;21.00;51.00;;;;;;5069303;28;20052;-76
2023/04/27 13:39:54;;;;;;;4.40;2.40;;;21.20;50.50;;;;;;5060271;28;20401;-76
2023/04/27 13:42:20;;;;;;;4.88;2.38;;;20.70;49.40;;;;;;5055638;28;20045;-76
2023/04/27 13:44:48;;;;;;;5.30;1.92;;;20.00;49.10;;;;;;5054916;28;20064;-81
2023/04/27 13:47:14;;;;;;;5.07;2.50;;;19.50;49.40;;;;;;5069657;28;20082;-77
2023/04/27 13:49:39;;;;;;;5.00;2.13;;;19.00;49.10;;;;;;5071092;28;20477;-76
2023/04/27 13:52:05;;;;;;;5.07;2.17;;;18.70;49.30;;;;;;5056350;28;20048;-72